Time;durP1;ratioP1;P1;durP2;ratioP2;P2;SDS_P1;SDS_P2;PMS_P1;PMS_P2;Temp;Humidity;BMP_temperature;BMP_pressure;BME280_temperature;BME280_humidity;BME280_pressure;Samples;Min_cycle;Max_cycle;Signal;HPM_P1;HPM_P2
2023/09/25 00:00:19;;;;;;;4.00;2.50;;;;;;;20.75;62.71;99479.13;6087091;23;20005;-93
2023/09/25 00:02:45;;;;;;;4.25;2.80;;;;;;;20.78;62.72;99481.16;6091038;23;20008;-93
2023/09/25 00:05:10;;;;;;;5.00;2.50;;;;;;;20.75;62.99;99476.38;6085889;23;19993;-93
2023/09/25 00:07:36;;;;;;;6.78;2.88;;;;;;;20.73;63.13;99475.91;6087966;23;20389;-93
2023/09/25 00:10:01;;;;;;;6.25;2.58;;;;;;;20.62;62.95;99461.00;6086110;23;20076;-92
2023/09/25 00:12:28;;;;;;;6.38;2.92;;;;;;;20.71;62.97;99478.19;6087670;23;19986;-93
2023/09/25 00:14:54;;;;;;;6.07;3.30;;;;;;;20.65;63.09;99471.31;6086932;23;20352;-92
2023/09/25 00:17:19;;;;;;;4.60;3.00;;;;;;;20.63;62.96;99468.09;6110067;23;19994;-93
2023/09/25 00:19:45;;;;;;;7.15;2.78;;;;;;;20.50;63.06;99464.47;6110948;23;20052;-93
2023/09/25 00:22:10;;;;;;;6.63;3.25;;;;;;;20.49;63.68;99471.06;6110469;23;20025;-93
2023/09/25 00:24:36;;;;;;;5.47;2.80;;;;;;;20.57;63.32;99488.53;6087386;23;20417;-92
2023/09/25 00:27:01;;;;;;;8.52;3.47;;;;;;;20.46;63.63;99471.72;6110498;23;20413;-91
2023/09/25 00:29:27;;;;;;;7.85;2.78;;;;;;;20.56;63.40;99478.72;6086324;23;19997;-92
2023/09/25 00:31:52;;;;;;;3.65;2.78;;;;;;;20.46;63.96;99473.66;6086531;23;20011;-93
2023/09/25 00:34:18;;;;;;;4.57;2.78;;;;;;;20.43;63.84;99474.31;6110044;23;20005;-93
2023/09/25 00:36:44;;;;;;;6.68;2.80;;;;;;;20.32;63.82;99455.56;6087122;23;20417;-92
2023/09/25 00:39:09;;;;;;;5.47;2.80;;;;;;;20.33;64.17;99465.34;6085411;23;20012;-91
2023/09/25 00:41:37;;;;;;;4.22;2.90;;;;;;;20.40;64.23;99486.72;6109219;23;20005;-93
2023/09/25 00:44:03;;;;;;;4.97;3.05;;;;;;;20.37;64.55;99482.69;6087995;23;19989;-92
2023/09/25 00:46:28;;;;;;;5.05;3.40;;;;;;;20.30;64.64;99476.19;6110592;23;20024;-92
2023/09/25 00:48:54;;;;;;;6.10;3.10;;;;;;;20.29;64.36;99472.63;6086287;23;20084;-93
2023/09/25 00:51:19;;;;;;;6.43;3.10;;;;;;;20.28;64.72;99487.44;6110156;23;20001;-93
2023/09/25 00:53:45;;;;;;;7.28;3.72;;;;;;;20.28;64.71;99492.91;6110063;23;20005;-93
2023/09/25 00:56:10;;;;;;;5.70;2.90;;;;;;;20.21;64.88;99484.41;6110906;23;20060;-93
2023/09/25 00:58:36;;;;;;;4.25;3.25;;;;;;;20.23;64.89;99489.53;6109952;23;20093;-93
2023/09/25 01:01:01;;;;;;;6.75;3.15;;;;;;;20.18;64.89;99488.59;6109354;23;20348;-93
2023/09/25 01:03:27;;;;;;;5.60;3.42;;;;;;;20.12;65.00;99480.94;6087089;23;20005;-93
2023/09/25 01:05:52;;;;;;;5.22;3.03;;;;;;;20.11;65.29;99485.59;6085944;23;20001;-92
2023/09/25 01:08:21;;;;;;;7.15;3.60;;;;;;;20.13;65.37;99490.72;6086334;23;20005;-93
2023/09/25 01:10:46;;;;;;;6.43;3.40;;;;;;;20.06;65.05;99491.25;6085173;23;20001;-93
2023/09/25 01:13:12;;;;;;;4.35;2.88;;;;;;;19.91;65.75;99473.47;6084365;23;20021;-93
2023/09/25 01:15:41;;;;;;;5.65;3.00;;;;;;;20.05;65.52;99497.06;6087278;23;19998;-93
2023/09/25 01:18:07;;;;;;;9.88;3.22;;;;;;;19.85;66.02;99468.50;6086984;23;20001;-92
2023/09/25 01:20:33;;;;;;;5.85;3.20;;;;;;;20.00;65.85;99489.81;6086468;23;20084;-93
2023/09/25 01:22:59;;;;;;;6.47;3.17;;;;;;;19.98;65.79;99492.91;6086990;23;20005;-92
2023/09/25 01:25:24;;;;;;;4.45;2.72;;;;;;;19.89;65.94;99483.13;6109569;23;19997;-92
2023/09/25 01:27:50;;;;;;;4.45;3.15;;;;;;;19.80;66.03;99480.44;6085881;23;20040;-92
2023/09/25 01:30:16;;;;;;;4.00;2.97;;;;;;;19.84;66.33;99491.50;6087317;23;20004;-93
2023/09/25 01:32:44;;;;;;;5.90;3.30;;;;;;;19.92;66.34;99498.84;6110741;23;20400;-92
2023/09/25 01:35:22;;;;;;;5.10;3.03;;;;;;;19.87;66.12;99490.84;6110946;23;20016;-92
2023/09/25 01:37:57;;;;;;;4.07;2.90;;;;;;;19.79;66.17;99481.53;6088998;23;20009;-92
2023/09/25 01:40:24;;;;;;;6.85;3.30;;;;;;;19.87;66.36;99490.84;6111575;23;20069;-91
2023/09/25 01:42:49;;;;;;;5.28;3.22;;;;;;;19.83;66.18;99487.16;6109773;23;20424;-93
2023/09/25 01:45:17;;;;;;;6.65;3.28;;;;;;;19.75;66.28;99481.38;6111156;23;20060;-92
2023/09/25 01:47:48;;;;;;;6.57;3.00;;;;;;;19.79;66.40;99487.00;6080885;23;20017;-92
2023/09/25 01:50:14;;;;;;;4.30;3.13;;;;;;;19.76;66.65;99488.47;6082723;23;19998;-93
2023/09/25 01:52:40;;;;;;;7.03;3.22;;;;;;;19.67;66.88;99487.69;6104309;23;20009;-92
2023/09/25 01:55:06;;;;;;;6.47;3.30;;;;;;;19.69;66.98;99498.25;6106052;23;20005;-92
2023/09/25 01:57:32;;;;;;;5.65;3.28;;;;;;;19.69;67.26;99501.78;6083554;23;20433;-91
2023/09/25 01:59:58;;;;;;;8.57;3.33;;;;;;;19.65;67.05;99500.88;6106501;23;20010;-92
2023/09/25 02:02:23;;;;;;;6.28;3.22;;;;;;;19.59;67.22;99502.16;6081510;23;20096;-92
2023/09/25 02:04:49;;;;;;;4.32;3.08;;;;;;;19.55;67.20;99507.47;6107087;23;20034;-92
2023/09/25 02:07:15;;;;;;;5.10;2.90;;;;;;;19.39;67.66;99474.41;6130671;23;20389;-94
2023/09/25 02:09:41;;;;;;;5.30;3.10;;;;;;;19.54;67.62;99510.53;6106076;23;20085;-92
2023/09/25 02:12:07;;;;;;;4.25;3.10;;;;;;;19.48;67.56;99498.97;6132198;23;20001;-92
2023/09/25 02:14:33;;;;;;;6.35;3.40;;;;;;;19.58;67.46;99512.28;6105942;23;20002;-92
2023/09/25 02:16:58;;;;;;;4.78;3.38;;;;;;;19.47;67.75;99502.03;6131560;23;20029;-92
2023/09/25 02:19:28;;;;;;;4.93;3.47;;;;;;;19.52;67.72;99510.84;6082854;23;20010;-92
2023/09/25 02:21:54;;;;;;;6.78;3.28;;;;;;;19.42;67.90;99500.25;6154584;23;20006;-90
2023/09/25 02:24:20;;;;;;;5.50;3.83;;;;;;;19.39;67.67;99506.38;6130174;23;20034;-92
2023/09/25 02:26:45;;;;;;;6.30;4.07;;;;;;;19.39;68.15;99512.63;6081709;23;20006;-92
2023/09/25 02:29:11;;;;;;;11.30;4.47;;;;;;;19.40;67.91;99513.44;6107533;23;20002;-92
2023/09/25 02:31:36;;;;;;;6.30;3.83;;;;;;;19.38;68.31;99518.41;6107971;23;20421;-91
2023/09/25 02:34:02;;;;;;;7.25;3.70;;;;;;;19.22;68.13;99506.41;6106311;23;20326;-91
2023/09/25 02:36:27;;;;;;;6.07;3.47;;;;;;;19.33;68.27;99521.31;6083463;23;20044;-92
2023/09/25 02:38:53;;;;;;;5.30;3.78;;;;;;;19.33;68.20;99524.84;6131275;23;20002;-92
2023/09/25 02:41:21;;;;;;;8.07;3.42;;;;;;;19.24;68.49;99515.88;6082965;23;20001;-92
2023/09/25 02:43:46;;;;;;;4.50;3.40;;;;;;;19.24;68.46;99521.34;6083187;23;19994;-93
2023/09/25 02:46:12;;;;;;;6.93;3.65;;;;;;;19.28;68.33;99532.41;6131830;23;20388;-92
2023/09/25 02:48:37;;;;;;;6.20;3.42;;;;;;;19.21;68.61;99521.97;6088479;23;20010;-92
2023/09/25 02:51:06;;;;;;;7.40;3.67;;;;;;;19.03;69.19;99517.63;6110910;23;19997;-92
2023/09/25 02:53:31;;;;;;;9.05;4.22;;;;;;;19.20;69.26;99546.88;6111091;23;20002;-92
2023/09/25 02:55:57;;;;;;;10.27;4.05;;;;;;;18.96;69.08;99510.72;6087066;23;20441;-92
2023/09/25 02:58:24;;;;;;;10.60;4.07;;;;;;;18.97;69.15;99528.72;6085421;23;20005;-92
2023/09/25 03:00:52;;;;;;;9.75;4.05;;;;;;;18.83;69.47;99524.56;6111656;23;19997;-93
2023/09/25 03:03:18;;;;;;;5.82;3.67;;;;;;;18.98;69.28;99552.16;6087538;23;20011;-92
2023/09/25 03:05:43;;;;;;;6.60;3.40;;;;;;;18.93;69.27;99549.59;6087336;23;20349;-93
2023/09/25 03:08:09;;;;;;;9.73;3.70;;;;;;;18.99;69.19;99569.34;6089348;23;20001;-93
2023/09/25 03:10:35;;;;;;;6.03;4.38;;;;;;;18.84;69.58;99547.97;6111015;23;20444;-93
2023/09/25 03:13:01;;;;;;;7.78;3.92;;;;;;;18.70;69.80;99543.44;6087868;23;20063;-92
2023/09/25 03:15:28;;;;;;;5.20;3.40;;;;;;;18.81;69.86;99571.25;6087908;23;20065;-91
2023/09/25 03:17:54;;;;;;;11.18;3.67;;;;;;;18.80;69.85;99577.84;6088130;23;20001;-91
2023/09/25 03:20:19;;;;;;;6.32;3.75;;;;;;;18.64;70.03;99558.34;6088571;23;20006;-92
2023/09/25 03:22:45;;;;;;;6.90;3.70;;;;;;;18.75;70.07;99583.38;6087172;23;20020;-92
2023/09/25 03:25:12;;;;;;;5.70;4.20;;;;;;;18.81;69.99;99590.34;6087360;23;20005;-91
2023/09/25 03:27:38;;;;;;;6.47;3.47;;;;;;;18.81;70.05;99584.88;6087897;23;20005;-92
2023/09/25 03:30:05;;;;;;;6.55;3.60;;;;;;;18.83;70.23;99593.56;6109785;23;20037;-92
2023/09/25 03:32:31;;;;;;;4.88;3.97;;;;;;;18.65;70.47;99567.31;6085205;23;20428;-93
2023/09/25 03:34:59;;;;;;;7.72;4.03;;;;;;;18.81;70.42;99597.72;6086318;23;20009;-92
2023/09/25 03:37:25;;;;;;;8.13;4.03;;;;;;;18.72;70.74;99597.69;6086474;23;20349;-92
2023/09/25 03:39:50;;;;;;;6.63;3.70;;;;;;;18.54;70.67;99583.19;6087495;23;20001;-92
2023/09/25 03:42:16;;;;;;;5.00;3.40;;;;;;;18.61;70.54;99602.59;6109658;23;19997;-92
2023/09/25 03:44:41;;;;;;;5.25;3.95;;;;;;;18.55;70.38;99595.69;6135917;23;19994;-91
2023/09/25 03:47:07;;;;;;;11.63;4.00;;;;;;;18.61;70.57;99610.78;6105670;23;20025;-92
2023/09/25 03:49:33;;;;;;;10.35;4.13;;;;;;;18.51;70.65;99597.44;6130576;23;20002;-92
2023/09/25 03:51:58;;;;;;;9.60;4.50;;;;;;;18.51;70.62;99603.72;6082852;23;20132;-92
2023/09/25 03:54:24;;;;;;;12.07;4.90;;;;;;;18.55;70.85;99604.69;6129953;23;19998;-92
2023/09/25 03:56:49;;;;;;;12.30;5.05;;;;;;;18.62;70.55;99600.69;6081112;23;20460;-91
2023/09/25 03:59:15;;;;;;;11.73;5.38;;;;;;;18.67;70.21;99608.72;6106133;23;20005;-91
2023/09/25 04:01:42;;;;;;;10.75;5.78;;;;;;;18.67;70.09;99601.34;6129873;23;19998;-90
2023/09/25 04:04:08;;;;;;;15.63;5.38;;;;;;;18.82;70.38;99613.75;6080804;23;19998;-92
2023/09/25 04:06:34;;;;;;;14.57;5.40;;;;;;;18.76;70.46;99610.38;6106368;23;20002;-92
2023/09/25 04:08:59;;;;;;;17.10;7.32;;;;;;;18.80;70.63;99613.28;6106475;23;20033;-91
2023/09/25 04:11:25;;;;;;;15.07;6.15;;;;;;;18.86;71.38;99627.56;6132063;23;20002;-92
2023/09/25 04:13:59;;;;;;;10.88;4.68;;;;;;;18.82;70.90;99632.06;6106597;23;20090;-93
2023/09/25 04:16:28;;;;;;;14.48;5.88;;;;;;;18.70;70.36;99608.09;6108603;23;20088;-92
2023/09/25 04:18:54;;;;;;;12.00;6.75;;;;;;;18.80;70.57;99626.13;6157878;23;20002;-91
2023/09/25 04:21:21;;;;;;;16.55;7.55;;;;;;;18.73;71.63;99624.63;6107627;23;20469;-90
2023/09/25 04:23:53;;;;;;;15.85;6.25;;;;;;;18.85;71.59;99632.22;6131835;23;20439;-90
2023/09/25 04:26:18;;;;;;;9.20;4.93;;;;;;;18.74;71.33;99639.09;6106758;23;19998;-90
2023/09/25 04:28:46;;;;;;;10.07;4.88;;;;;;;18.74;70.03;99639.88;6105353;23;19998;-92
2023/09/25 04:31:12;;;;;;;10.52;4.93;;;;;;;18.67;70.04;99636.00;6106541;23;20002;-92
2023/09/25 04:33:38;;;;;;;16.60;6.15;;;;;;;18.77;70.10;99652.06;6109842;23;20073;-92
2023/09/25 04:36:05;;;;;;;319.10;25.75;;;;;;;18.80;70.25;99646.03;6106882;23;19998;-92
2023/09/25 04:38:30;;;;;;;10.13;5.50;;;;;;;18.86;70.11;99652.94;6086329;23;20001;-92
2023/09/25 04:41:01;;;;;;;8.10;5.22;;;;;;;19.03;69.62;99656.81;6106814;23;20041;-94
2023/09/25 04:43:27;;;;;;;17.48;6.70;;;;;;;19.09;69.98;99669.19;6085639;23;20004;-94
2023/09/25 04:45:55;;;;;;;15.35;7.00;;;;;;;19.01;69.88;99650.88;6083959;23;20002;-93
2023/09/25 04:48:21;;;;;;;13.45;6.93;;;;;;;19.09;70.05;99664.56;6085071;23;20017;-93
2023/09/25 04:50:46;;;;;;;16.25;6.93;;;;;;;19.13;69.73;99649.16;6084227;23;20002;-92
2023/09/25 04:53:14;;;;;;;17.88;7.40;;;;;;;19.05;69.37;99638.19;6084726;23;20037;-94
2023/09/25 04:55:43;;;;;;;19.40;7.30;;;;;;;19.13;69.73;99635.50;6082634;23;20002;-92
2023/09/25 04:59:05;;;;;;;17.02;8.82;;;;;;;19.17;70.13;99641.94;6113089;23;20357;-93
2023/09/25 05:01:30;;;;;;;24.48;10.23;;;;;;;19.33;70.50;99661.38;6125506;23;20029;-92
2023/09/25 05:03:56;;;;;;;20.73;9.95;;;;;;;19.31;70.48;99649.16;6084156;23;19998;-93
2023/09/25 05:06:22;;;;;;;20.60;11.40;;;;;;;19.26;71.40;99652.88;6108900;23;20409;-93
2023/09/25 05:08:48;;;;;;;27.05;11.05;;;;;;;19.46;71.01;99670.53;6109338;23;20006;-92
2023/09/25 05:11:14;;;;;;;24.45;9.40;;;;;;;19.45;70.74;99670.88;6107280;23;20089;-93
2023/09/25 05:13:39;;;;;;;25.50;9.98;;;;;;;19.51;70.54;99675.06;6082583;23;20010;-93
2023/09/25 05:16:08;;;;;;;22.38;9.38;;;;;;;19.48;69.30;99668.28;6108054;23;19998;-92
2023/09/25 05:18:33;;;;;;;22.88;13.23;;;;;;;19.53;69.29;99675.53;6107896;23;20006;-92
2023/09/25 05:21:01;;;;;;;31.23;10.68;;;;;;;19.58;69.78;99692.56;6107665;23;20081;-93
2023/09/25 05:23:38;;;;;;;18.70;9.07;;;;;;;19.70;69.42;99691.94;6092596;23;20008;-94
2023/09/25 05:26:22;;;;;;;22.20;9.10;;;;;;;19.69;68.91;99686.78;6086640;23;20006;-92
2023/09/25 05:28:54;;;;;;;19.88;9.68;;;;;;;19.75;68.67;99686.31;6111185;23;20013;-93
2023/09/25 05:31:24;;;;;;;18.17;10.30;;;;;;;19.85;68.65;99690.66;6109823;23;20005;-94
2023/09/25 05:34:01;;;;;;;17.77;8.77;;;;;;;19.78;68.87;99693.09;6083664;23;20026;-94
2023/09/25 05:36:29;;;;;;;16.70;8.48;;;;;;;19.86;68.68;99689.53;6105144;23;20005;-91
2023/09/25 05:38:58;;;;;;;14.73;8.73;;;;;;;19.90;68.91;99673.28;6105751;23;20005;-93
2023/09/25 05:41:38;;;;;;;12.98;7.88;;;;;;;19.90;69.70;99671.38;6110209;23;20021;-96
2023/09/25 05:53:09;;;;;;;;;;;;;;;;;;;;;
2023/09/25 05:56:28;;;;;;;25.33;12.30;;;;;;;20.27;68.05;99695.56;6206056;23;20021;-96
2023/09/25 05:59:47;;;;;;;33.92;20.63;;;;;;;20.24;68.08;99686.09;6087875;23;20014;-95
2023/09/25 06:04:57;;;;;;;24.98;9.75;;;;;;;20.46;67.33;99692.47;6189601;22;20432;-95
2023/09/25 06:08:18;;;;;;;27.88;15.73;;;;;;;20.73;67.13;99719.47;6122588;23;20001;-92
2023/09/25 06:10:50;;;;;;;24.52;10.85;;;;;;;20.66;66.73;99691.00;5992505;23;20452;-93
2023/09/25 06:13:30;;;;;;;18.35;10.43;;;;;;;20.66;67.01;99710.94;5989366;23;20004;-92
2023/09/25 06:16:22;;;;;;;19.88;9.63;;;;;;;20.65;67.08;99706.59;5989804;23;20003;-90
2023/09/25 06:19:08;;;;;;;28.00;13.07;;;;;;;20.66;66.68;99712.88;5968933;23;20045;-91
2023/09/25 06:21:36;;;;;;;16.88;10.57;;;;;;;20.73;66.69;99721.38;6034103;23;20356;-92
2023/09/25 06:24:03;;;;;;;27.95;11.07;;;;;;;20.85;66.18;99746.13;6080267;23;19998;-93
2023/09/25 06:26:39;;;;;;;24.67;9.65;;;;;;;20.76;66.70;99718.00;6056605;23;20001;-90
2023/09/25 06:29:13;;;;;;;15.75;10.95;;;;;;;20.90;67.26;99729.53;6058981;23;20009;-91
2023/09/25 06:31:39;;;;;;;26.88;10.55;;;;;;;20.96;66.26;99739.16;6088074;23;20056;-92
2023/09/25 06:34:07;;;;;;;24.45;12.85;;;;;;;21.02;65.54;99722.53;6064162;23;20006;-92
2023/09/25 06:36:36;;;;;;;19.85;11.45;;;;;;;21.06;65.85;99729.75;6060465;23;20037;-91
2023/09/25 06:39:09;;;;;;;19.75;9.90;;;;;;;21.28;66.23;99730.63;6082636;23;20054;-91
2023/09/25 06:41:38;;;;;;;17.27;7.82;;;;;;;21.24;66.34;99724.19;6060248;23;20033;-92
2023/09/25 06:44:05;;;;;;;19.23;10.73;;;;;;;21.33;66.21;99735.91;6058280;23;19997;-93
2023/09/25 06:46:38;;;;;;;19.58;10.55;;;;;;;21.36;65.38;99727.03;6082539;23;20093;-93
2023/09/25 06:49:05;;;;;;;10.25;7.13;;;;;;;21.55;65.99;99746.59;6116759;23;20005;-93
2023/09/25 06:51:31;;;;;;;11.48;7.25;;;;;;;21.58;65.91;99745.94;6119028;23;20411;-94
2023/09/25 06:53:56;;;;;;;10.35;7.40;;;;;;;21.70;66.00;99744.38;6120567;23;20045;-94
2023/09/25 06:56:22;;;;;;;15.05;6.93;;;;;;;21.72;65.52;99728.41;6120533;23;20336;-95
2023/09/25 07:02:10;;;;;;;11.27;7.07;;;;;;;21.84;65.15;99752.34;6195990;23;20134;-93
2023/09/25 07:04:41;;;;;;;8.32;6.50;;;;;;;21.77;65.37;99736.44;6145831;23;20021;-96
2023/09/25 07:07:10;;;;;;;13.98;7.88;;;;;;;21.81;64.95;99742.88;6147664;23;20009;-96
2023/09/25 07:09:54;;;;;;;10.98;7.05;;;;;;;21.89;64.85;99738.44;6128864;23;20045;-95
2023/09/25 07:12:22;;;;;;;12.35;6.93;;;;;;;22.04;64.28;99748.81;6157709;23;20055;-95
2023/09/25 07:14:52;;;;;;;10.30;7.20;;;;;;;21.92;64.79;99733.09;6122311;23;20004;-94
2023/09/25 07:17:20;;;;;;;14.35;10.57;;;;;;;22.16;64.80;99767.22;6123789;23;20001;-95
2023/09/25 07:19:56;;;;;;;13.40;6.65;;;;;;;22.26;64.01;99752.34;6124912;23;20007;-95
2023/09/25 07:22:32;;;;;;;11.75;7.60;;;;;;;22.49;63.38;99766.47;6125396;23;20020;-95
2023/09/25 07:25:23;;;;;;;7.90;6.45;;;;;;;22.37;63.25;99757.06;6089300;23;20002;-95
2023/09/25 07:27:50;;;;;;;11.48;6.63;;;;;;;22.32;63.28;99746.28;6086073;23;20006;-94
2023/09/25 07:30:16;;;;;;;9.02;6.20;;;;;;;22.59;63.23;99772.31;6037053;23;20041;-92
2023/09/25 07:32:52;;;;;;;12.20;6.55;;;;;;;22.60;62.54;99748.44;6036958;23;20003;-96
2023/09/25 07:35:34;;;;;;;;;;;;;;;;;;;;;
2023/09/25 07:38:09;;;;;;;12.75;5.90;;;;;;;22.93;61.58;99764.84;6068242;23;20033;-96
2023/09/25 07:40:34;;;;;;;8.20;5.38;;;;;;;22.96;61.21;99752.38;6057839;23;20057;-94
2023/09/25 07:43:00;;;;;;;8.40;5.28;;;;;;;22.90;60.87;99748.25;6030861;23;20062;-93
2023/09/25 07:45:26;;;;;;;12.95;5.78;;;;;;;23.03;61.01;99760.06;6031347;23;20002;-93
2023/09/25 07:47:57;;;;;;;10.35;6.50;;;;;;;22.89;61.13;99747.47;6033905;23;20085;-92
2023/09/25 07:50:28;;;;;;;;;;;;;;;23.14;60.66;99778.50;6061510;23;20066;-95
2023/09/25 07:53:16;;;;;;;10.00;5.60;;;;;;;23.05;60.13;99755.84;6085917;23;19916;-95
2023/09/25 07:56:02;;;;;;;10.68;6.53;;;;;;;23.11;59.30;99750.91;6073364;23;20106;-94
2023/09/25 07:58:42;;;;;;;;;;;;;;;;;;;;;
2023/09/25 08:01:18;;;;;;;13.80;7.20;;;;;;;23.37;58.85;99742.34;6136288;23;20033;-95
2023/09/25 08:04:00;;;;;;;11.57;6.15;;;;;;;23.60;58.87;99759.13;6062023;23;20076;-96
2023/09/25 08:06:37;;;;;;;;;;;;;;;;;;;;;
2023/09/25 08:09:14;;;;;;;6.70;4.50;;;;;;;23.82;57.47;99759.78;6113782;23;19963;-96
2023/09/25 08:11:53;;;;;;;14.90;6.80;;;;;;;23.93;58.13;99769.97;6066996;23;20002;-94
2023/09/25 08:14:22;;;;;;;16.50;9.55;;;;;;;23.63;57.35;99752.13;6091335;23;20006;-94
2023/09/25 08:16:48;;;;;;;27.48;20.05;;;;;;;23.84;56.84;99751.97;6062317;23;20006;-92
2023/09/25 08:20:16;;;;;;;11.45;5.60;;;;;;;23.82;56.70;99733.06;6065416;23;19997;-96
2023/09/25 08:22:43;;;;;;;9.50;4.93;;;;;;;23.93;56.18;99738.91;6088349;23;20054;-92
2023/09/25 08:25:10;;;;;;;9.80;5.22;;;;;;;23.99;55.60;99734.75;6147255;23;20005;-92
2023/09/25 08:28:57;;;;;;;6.40;4.95;;;;;;;24.07;55.69;99741.25;6145583;23;20071;-94
2023/09/25 08:31:26;;;;;;;6.88;4.60;;;;;;;24.15;55.14;99726.53;6017673;23;20358;-94
2023/09/25 08:33:55;;;;;;;7.47;4.85;;;;;;;24.10;55.21;99744.09;6069593;23;20090;-93
2023/09/25 08:36:23;;;;;;;12.25;6.80;;;;;;;24.17;54.83;99741.53;6123735;23;20001;-95
2023/09/25 08:38:49;;;;;;;10.98;5.60;;;;;;;24.27;54.50;99758.72;6121308;23;20056;-94
2023/09/25 08:41:21;;;;;;;15.52;10.35;;;;;;;24.19;54.86;99732.94;6123729;23;20104;-94
2023/09/25 08:43:47;;;;;;;8.32;4.65;;;;;;;24.41;53.58;99737.88;6146569;23;20072;-92
2023/09/25 08:46:20;;;;;;;8.38;5.60;;;;;;;24.47;53.84;99743.94;6121507;23;20012;-93
2023/09/25 08:49:16;;;;;;;6.95;4.38;;;;;;;24.60;52.31;99741.94;6130273;23;20028;-93
2023/09/25 09:08:18;;;;;;;10.13;4.75;;;;;;;24.98;50.13;99751.53;6162549;23;20026;-95
2023/09/25 09:10:53;;;;;;;7.13;3.80;;;;;;;24.76;49.73;99719.91;6138883;23;20017;-93
2023/09/25 09:13:27;;;;;;;7.32;4.28;;;;;;;24.84;49.35;99720.88;6114098;23;20100;-92
2023/09/25 09:16:43;;;;;;;6.03;4.45;;;;;;;24.94;49.87;99745.91;6094001;23;20001;-92
2023/09/25 09:19:14;;;;;;;7.65;4.40;;;;;;;24.96;49.45;99745.56;6040099;23;20008;-94
2023/09/25 09:21:44;;;;;;;10.10;5.18;;;;;;;24.96;50.08;99732.59;6115627;23;20005;-92
2023/09/25 09:24:21;;;;;;;6.03;3.80;;;;;;;25.06;49.08;99728.50;6141421;23;19993;-94
2023/09/25 09:27:24;;;;;;;7.80;4.13;;;;;;;25.00;48.20;99727.16;6093250;23;20001;-93
2023/09/25 09:30:35;;;;;;;7.97;4.10;;;;;;;24.95;48.61;99741.22;5981359;23;20095;-94
2023/09/25 09:33:09;;;;;;;8.45;3.88;;;;;;;24.82;49.08;99732.25;6099605;23;20094;-92
2023/09/25 09:35:43;;;;;;;9.15;4.97;;;;;;;24.90;49.17;99733.22;6132649;23;19997;-93
2023/09/25 09:38:11;;;;;;;8.05;3.90;;;;;;;25.07;48.85;99746.66;6123956;23;20081;-93
2023/09/25 09:40:47;;;;;;;8.13;4.88;;;;;;;25.10;48.73;99745.13;6090651;23;20088;-93
2023/09/25 09:43:17;;;;;;;7.65;4.07;;;;;;;25.06;48.16;99730.47;6117961;23;20416;-92
2023/09/25 09:46:36;;;;;;;7.65;4.75;;;;;;;25.30;47.82;99755.09;6090251;23;20005;-95
2023/09/25 09:49:03;;;;;;;9.35;4.45;;;;;;;25.18;47.94;99738.63;6105381;23;20006;-94
2023/09/25 09:51:33;;;;;;;6.13;3.88;;;;;;;25.31;48.16;99751.16;6114081;23;20001;-93
2023/09/25 09:54:14;;;;;;;9.82;4.50;;;;;;;25.29;47.37;99731.41;6117015;23;20010;-92
2023/09/25 09:56:53;;;;;;;9.63;4.57;;;;;;;25.47;47.08;99733.81;6091466;23;20001;-92
2023/09/25 09:59:40;;;;;;;11.35;6.28;;;;;;;25.69;47.01;99743.31;6163891;23;20005;-92
2023/09/25 10:02:06;;;;;;;6.07;4.25;;;;;;;25.60;46.97;99754.56;6120473;23;20029;-92
2023/09/25 10:04:45;;;;;;;7.97;4.28;;;;;;;25.47;46.97;99720.81;6093193;23;20019;-94
2023/09/25 10:07:28;;;;;;;6.13;3.75;;;;;;;25.64;46.17;99716.03;6116480;23;20045;-93
2023/09/25 10:10:10;;;;;;;5.68;3.97;;;;;;;25.84;46.65;99741.66;6135394;23;20016;-94
2023/09/25 10:12:42;;;;;;;9.27;4.28;;;;;;;25.90;45.89;99726.44;6113795;23;20025;-93
2023/09/25 10:15:08;;;;;;;10.80;4.82;;;;;;;26.04;45.64;99718.44;6118200;23;19997;-93
2023/09/25 10:17:45;;;;;;;7.55;3.47;;;;;;;25.96;45.66;99698.22;6096735;23;20363;-94
2023/09/25 10:20:34;;;;;;;10.63;4.00;;;;;;;26.08;45.40;99701.97;6095296;23;20017;-91
2023/09/25 10:23:04;;;;;;;7.47;3.63;;;;;;;26.28;45.29;99711.81;6115242;23;20025;-92
2023/09/25 10:25:54;;;;;;;5.10;3.40;;;;;;;26.23;45.01;99692.00;6089163;23;19998;-91
2023/09/25 10:28:33;;;;;;;7.43;3.92;;;;;;;26.59;44.70;99710.03;6048901;23;20017;-92
2023/09/25 10:31:00;;;;;;;5.13;3.50;;;;;;;26.64;44.34;99695.13;6047849;23;20003;-93
2023/09/25 10:33:35;;;;;;;6.55;3.88;;;;;;;26.82;44.44;99698.97;6051930;23;20006;-92
2023/09/25 10:36:08;;;;;;;5.55;3.63;;;;;;;26.53;44.28;99676.38;6047791;23;20007;-92
2023/09/25 10:38:40;;;;;;;6.25;4.15;;;;;;;26.57;44.07;99680.00;6073502;23;20006;-92
2023/09/25 10:41:15;;;;;;;8.40;4.75;;;;;;;26.74;43.66;99686.19;6076934;23;20002;-95
2023/09/25 10:44:30;;;;;;;9.77;4.82;;;;;;;26.51;44.06;99662.13;6053218;23;20003;-96
2023/09/25 10:47:11;;;;;;;6.88;4.20;;;;;;;26.71;43.79;99687.75;6080673;23;20010;-93
2023/09/25 10:49:39;;;;;;;12.73;7.55;;;;;;;26.80;43.79;99680.00;6054337;23;20011;-92
2023/09/25 10:52:08;;;;;;;11.55;3.90;;;;;;;26.81;43.43;99672.50;6032049;23;20014;-95
2023/09/25 10:54:49;;;;;;;7.03;3.75;;;;;;;26.93;42.92;99677.03;6030192;23;20469;-92
2023/09/25 10:57:19;;;;;;;9.45;3.75;;;;;;;27.01;43.23;99674.00;6055454;23;20007;-92
2023/09/25 10:59:48;;;;;;;7.55;4.60;;;;;;;27.04;43.22;99682.72;6120029;23;20006;-94
2023/09/25 11:02:15;;;;;;;6.72;4.13;;;;;;;27.10;42.41;99672.91;6091714;23;20012;-91
2023/09/25 11:04:44;;;;;;;8.73;3.97;;;;;;;27.19;42.67;99674.25;6113994;23;20376;-92
2023/09/25 11:07:10;;;;;;;7.72;4.00;;;;;;;27.30;42.88;99685.50;6094165;23;20005;-92
2023/09/25 11:09:53;;;;;;;8.38;4.60;;;;;;;27.28;42.72;99662.94;6093309;23;20013;-93
2023/09/25 11:12:29;;;;;;;13.07;4.80;;;;;;;27.47;42.76;99667.53;6122681;23;19998;-93
2023/09/25 11:14:57;;;;;;;8.88;4.53;;;;;;;27.58;42.49;99675.97;6087537;23;20012;-94
2023/09/25 11:21:01;;;;;;;6.88;4.70;;;;;;;27.74;42.03;99668.25;6120646;23;20002;-94
2023/09/25 11:23:28;;;;;;;4.32;3.38;;;;;;;27.59;41.20;99660.97;6140660;23;20009;-95
2023/09/25 11:26:19;;;;;;;7.90;3.85;;;;;;;27.45;42.54;99683.72;6095867;23;20010;-95
2023/09/25 11:32:23;;;;;;;6.13;4.07;;;;;;;27.38;42.36;99648.47;5994734;24;20043;-95
2023/09/25 11:34:57;;;;;;;5.13;3.25;;;;;;;27.57;42.38;99652.25;6081237;23;20065;-92
2023/09/25 11:37:39;;;;;;;8.50;3.97;;;;;;;27.64;42.84;99655.09;6060036;23;20441;-94
2023/09/25 11:40:19;;;;;;;7.38;3.80;;;;;;;27.52;42.67;99653.41;6131008;23;20025;-93
2023/09/25 11:42:46;;;;;;;5.53;3.70;;;;;;;27.58;42.45;99665.72;6019899;23;20009;-92
2023/09/25 11:45:33;;;;;;;;;;;;;;;;;;;;;
2023/09/25 12:11:43;;;;;;;9.23;3.60;;;;;;;27.54;44.00;99642.75;5969694;24;20024;-92
2023/09/25 12:18:31;;;;;;;;;;;;;;;;;;;;;
2023/09/25 12:21:28;;;;;;;;;;;;;;;;;;;;;
2023/09/25 12:24:08;;;;;;;4.95;3.13;;;;;;;27.53;42.42;99615.47;6003932;23;20039;-93
2023/09/25 12:27:05;;;;;;;5.05;3.25;;;;;;;27.78;42.23;99635.09;5970186;23;20090;-93
2023/09/25 12:30:21;;;;;;;5.43;2.95;;;;;;;27.84;41.31;99630.81;5964251;23;20004;-93
2023/09/25 12:33:18;;;;;;;;;;;;;;;;;;;;;
2023/09/25 12:35:57;;;;;;;8.50;4.13;;;;;;;27.76;41.30;99626.38;6008567;23;20058;-91
2023/09/25 12:38:31;;;;;;;6.72;3.60;;;;;;;27.94;40.69;99643.22;6051412;23;20017;-89
2023/09/25 12:41:03;;;;;;;7.65;3.00;;;;;;;27.80;40.25;99633.53;6082203;23;20001;-90
2023/09/25 12:43:37;;;;;;;6.35;3.50;;;;;;;27.93;40.03;99636.91;6082823;23;20077;-88
2023/09/25 12:46:17;;;;;;;7.90;3.35;;;;;;;28.02;39.98;99648.44;6082730;23;20398;-90
2023/09/25 12:49:25;;;;;;;;;;;;;;;;;;;;;
2023/09/25 12:51:58;;;;;;;6.07;3.53;;;;;;;28.08;40.71;99634.25;6111142;23;20017;-92
2023/09/25 12:54:23;;;;;;;9.63;5.25;;;;;;;28.07;40.58;99619.63;6062001;23;20089;-94
2023/09/25 12:56:49;;;;;;;13.70;4.80;;;;;;;28.16;40.82;99631.19;6060026;23;20001;-94
2023/09/25 12:59:18;;;;;;;10.00;3.90;;;;;;;28.22;39.92;99634.38;6059785;23;20006;-94
2023/09/25 13:02:19;;;;;;;6.28;3.10;;;;;;;28.24;40.03;99645.09;6086097;23;20033;-92
2023/09/25 13:04:51;;;;;;;6.20;3.70;;;;;;;28.05;40.08;99623.94;5967433;24;20468;-94
2023/09/25 13:07:16;;;;;;;;;;;;;;;28.04;40.19;99641.72;5947601;24;20404;-94
2023/09/25 13:13:24;;;;;;;5.25;3.00;;;;;;;27.90;40.35;99626.56;6019240;23;20022;-95
2023/09/25 13:19:02;;;;;;;6.10;2.72;;;;;;;27.64;40.44;99621.91;5973359;23;19991;-92